sensor_id;sensor_type;location;lat;lon;timestamp;pressure;altitude;pressure_sealevel;temperature;humidity
62946;BME280;52164;52.212;-1.010;2023-02-24T00:01:54;100951.80;;;1.48;67.39
62946;BME280;52164;52.212;-1.010;2023-02-24T00:04:25;100947.41;;;1.44;67.43
62946;BME280;52164;52.212;-1.010;2023-02-24T00:06:51;100947.95;;;1.40;67.15
62946;BME280;52164;52.212;-1.010;2023-02-24T00:09:18;100944.48;;;1.38;67.39
62946;BME280;52164;52.212;-1.010;2023-02-24T00:11:45;100937.27;;;1.34;67.55
62946;BME280;52164;52.212;-1.010;2023-02-24T00:14:12;100930.61;;;1.30;67.71
62946;BME280;52164;52.212;-1.010;2023-02-24T00:16:40;100929.60;;;1.27;67.67
62946;BME280;52164;52.212;-1.010;2023-02-24T00:19:06;100930.45;;;1.26;67.75
62946;BME280;52164;52.212;-1.010;2023-02-24T00:21:31;100926.52;;;1.25;67.93
62946;BME280;52164;52.212;-1.010;2023-02-24T00:23:56;100925.47;;;1.25;67.59
62946;BME280;52164;52.212;-1.010;2023-02-24T00:26:23;100916.87;;;1.25;67.91
62946;BME280;52164;52.212;-1.010;2023-02-24T00:28:49;100913.34;;;1.25;68.26
62946;BME280;52164;52.212;-1.010;2023-02-24T00:31:15;100912.91;;;1.28;67.95
62946;BME280;52164;52.212;-1.010;2023-02-24T00:33:42;100905.80;;;1.30;67.98
62946;BME280;52164;52.212;-1.010;2023-02-24T00:36:09;100902.90;;;1.32;67.93
62946;BME280;52164;52.212;-1.010;2023-02-24T00:38:35;100902.35;;;1.36;67.57
62946;BME280;52164;52.212;-1.010;2023-02-24T00:41:06;100896.70;;;1.39;67.58
62946;BME280;52164;52.212;-1.010;2023-02-24T00:43:31;100896.27;;;1.41;67.61
62946;BME280;52164;52.212;-1.010;2023-02-24T00:46:01;100896.51;;;1.43;67.82
62946;BME280;52164;52.212;-1.010;2023-02-24T00:48:26;100888.88;;;1.45;67.53
62946;BME280;52164;52.212;-1.010;2023-02-24T00:50:52;100892.27;;;1.46;67.54
62946;BME280;52164;52.212;-1.010;2023-02-24T00:53:18;100887.70;;;1.47;67.43
62946;BME280;52164;52.212;-1.010;2023-02-24T00:55:43;100882.61;;;1.47;67.46
62946;BME280;52164;52.212;-1.010;2023-02-24T00:58:08;100881.54;;;1.46;67.86
62946;BME280;52164;52.212;-1.010;2023-02-24T01:00:34;100877.42;;;1.45;67.91
62946;BME280;52164;52.212;-1.010;2023-02-24T01:03:01;100871.48;;;1.42;67.94
62946;BME280;52164;52.212;-1.010;2023-02-24T01:05:28;100871.85;;;1.38;67.67
62946;BME280;52164;52.212;-1.010;2023-02-24T01:07:53;100867.41;;;1.37;67.74
62946;BME280;52164;52.212;-1.010;2023-02-24T01:10:18;100868.81;;;1.37;67.84
62946;BME280;52164;52.212;-1.010;2023-02-24T01:12:46;100866.84;;;1.36;67.66
62946;BME280;52164;52.212;-1.010;2023-02-24T01:15:17;100862.29;;;1.36;67.95
62946;BME280;52164;52.212;-1.010;2023-02-24T01:17:43;100858.10;;;1.37;67.96
62946;BME280;52164;52.212;-1.010;2023-02-24T01:20:09;100851.27;;;1.38;67.78
62946;BME280;52164;52.212;-1.010;2023-02-24T01:22:44;100848.17;;;1.39;67.71
62946;BME280;52164;52.212;-1.010;2023-02-24T01:25:10;100841.58;;;1.41;67.67
62946;BME280;52164;52.212;-1.010;2023-02-24T01:27:35;100838.86;;;1.43;67.69
62946;BME280;52164;52.212;-1.010;2023-02-24T01:30:01;100838.62;;;1.46;67.46
62946;BME280;52164;52.212;-1.010;2023-02-24T01:32:29;100833.81;;;1.49;67.71
62946;BME280;52164;52.212;-1.010;2023-02-24T01:34:56;100831.37;;;1.53;68.12
62946;BME280;52164;52.212;-1.010;2023-02-24T01:37:21;100830.64;;;1.57;67.98
62946;BME280;52164;52.212;-1.010;2023-02-24T01:39:48;100825.15;;;1.61;68.22
62946;BME280;52164;52.212;-1.010;2023-02-24T01:42:14;100819.64;;;1.64;68.19
62946;BME280;52164;52.212;-1.010;2023-02-24T01:47:07;100814.36;;;1.68;68.38
62946;BME280;52164;52.212;-1.010;2023-02-24T01:49:35;100813.45;;;1.67;68.32
62946;BME280;52164;52.212;-1.010;2023-02-24T01:52:07;100810.16;;;1.69;68.22
62946;BME280;52164;52.212;-1.010;2023-02-24T01:54:34;100807.61;;;1.71;68.33
62946;BME280;52164;52.212;-1.010;2023-02-24T01:57:03;100802.86;;;1.75;68.75
62946;BME280;52164;52.212;-1.010;2023-02-24T01:59:29;100796.66;;;1.79;68.43
62946;BME280;52164;52.212;-1.010;2023-02-24T02:01:59;100791.70;;;1.82;68.42
62946;BME280;52164;52.212;-1.010;2023-02-24T02:04:30;100780.29;;;1.87;68.28
62946;BME280;52164;52.212;-1.010;2023-02-24T02:06:58;100773.91;;;1.91;68.25
62946;BME280;52164;52.212;-1.010;2023-02-24T02:09:24;100763.77;;;1.92;68.04
62946;BME280;52164;52.212;-1.010;2023-02-24T02:11:50;100757.38;;;1.96;67.88
62946;BME280;52164;52.212;-1.010;2023-02-24T02:14:15;100754.25;;;1.97;68.08
62946;BME280;52164;52.212;-1.010;2023-02-24T02:16:48;100747.81;;;1.99;67.97
62946;BME280;52164;52.212;-1.010;2023-02-24T02:22:03;100743.01;;;2.02;68.00
62946;BME280;52164;52.212;-1.010;2023-02-24T02:27:27;100737.09;;;1.99;68.14
62946;BME280;52164;52.212;-1.010;2023-02-24T02:31:35;100738.06;;;2.01;67.90
62946;BME280;52164;52.212;-1.010;2023-02-24T02:32:31;100737.31;;;1.96;68.35
62946;BME280;52164;52.212;-1.010;2023-02-24T02:35:19;100732.41;;;1.92;68.48
62946;BME280;52164;52.212;-1.010;2023-02-24T02:37:57;100728.73;;;1.88;68.69
62946;BME280;52164;52.212;-1.010;2023-02-24T02:40:30;100726.71;;;1.85;68.95
62946;BME280;52164;52.212;-1.010;2023-02-24T02:43:13;100722.27;;;1.84;69.20
62946;BME280;52164;52.212;-1.010;2023-02-24T02:45:58;100723.92;;;1.86;69.29
62946;BME280;52164;52.212;-1.010;2023-02-24T02:48:30;100712.55;;;1.88;69.24
62946;BME280;52164;52.212;-1.010;2023-02-24T02:51:06;100711.42;;;1.91;69.29
62946;BME280;52164;52.212;-1.010;2023-02-24T02:54:49;100707.03;;;1.96;69.49
62946;BME280;52164;52.212;-1.010;2023-02-24T02:56:24;100700.50;;;2.00;69.67
62946;BME280;52164;52.212;-1.010;2023-02-24T02:58:54;100701.54;;;2.04;69.67
62946;BME280;52164;52.212;-1.010;2023-02-24T03:01:21;100700.49;;;2.09;69.75
62946;BME280;52164;52.212;-1.010;2023-02-24T03:03:51;100697.15;;;2.14;69.67
62946;BME280;52164;52.212;-1.010;2023-02-24T03:06:27;100689.02;;;2.18;69.96
62946;BME280;52164;52.212;-1.010;2023-02-24T03:11:20;100688.52;;;2.28;69.86
62946;BME280;52164;52.212;-1.010;2023-02-24T03:13:45;100686.13;;;2.35;69.77
62946;BME280;52164;52.212;-1.010;2023-02-24T03:16:13;100677.34;;;2.40;69.83
62946;BME280;52164;52.212;-1.010;2023-02-24T03:18:43;100670.64;;;2.46;69.56
62946;BME280;52164;52.212;-1.010;2023-02-24T03:21:12;100667.54;;;2.53;69.45
62946;BME280;52164;52.212;-1.010;2023-02-24T03:23:45;100660.91;;;2.60;69.78
62946;BME280;52164;52.212;-1.010;2023-02-24T03:26:14;100649.52;;;2.67;69.59
62946;BME280;52164;52.212;-1.010;2023-02-24T03:29:51;100646.40;;;2.73;69.49
62946;BME280;52164;52.212;-1.010;2023-02-24T03:31:30;100642.92;;;2.80;69.34
62946;BME280;52164;52.212;-1.010;2023-02-24T03:34:00;100645.89;;;2.85;69.65
62946;BME280;52164;52.212;-1.010;2023-02-24T03:36:27;100643.92;;;2.90;69.92
62946;BME280;52164;52.212;-1.010;2023-02-24T03:38:53;100642.27;;;2.92;69.79
62946;BME280;52164;52.212;-1.010;2023-02-24T03:41:23;100640.83;;;2.97;69.89
62946;BME280;52164;52.212;-1.010;2023-02-24T03:43:50;100635.84;;;3.01;69.53
62946;BME280;52164;52.212;-1.010;2023-02-24T03:46:16;100623.39;;;3.04;69.38
62946;BME280;52164;52.212;-1.010;2023-02-24T03:48:42;100624.17;;;3.05;69.60
62946;BME280;52164;52.212;-1.010;2023-02-24T03:51:12;100619.09;;;3.06;69.57
62946;BME280;52164;52.212;-1.010;2023-02-24T03:53:59;100610.96;;;3.06;69.24
62946;BME280;52164;52.212;-1.010;2023-02-24T03:58:57;100596.50;;;3.06;69.64
62946;BME280;52164;52.212;-1.010;2023-02-24T04:02:29;100596.30;;;3.05;69.87
62946;BME280;52164;52.212;-1.010;2023-02-24T04:04:19;100593.67;;;3.06;70.02
62946;BME280;52164;52.212;-1.010;2023-02-24T04:06:53;100587.53;;;3.06;69.91
62946;BME280;52164;52.212;-1.010;2023-02-24T04:11:33;100583.27;;;3.06;69.53
62946;BME280;52164;52.212;-1.010;2023-02-24T04:16:47;100570.43;;;3.01;69.90
62946;BME280;52164;52.212;-1.010;2023-02-24T04:17:21;100568.61;;;2.99;69.93
62946;BME280;52164;52.212;-1.010;2023-02-24T04:19:50;100562.63;;;2.99;69.77
62946;BME280;52164;52.212;-1.010;2023-02-24T04:22:16;100564.89;;;2.98;69.68
62946;BME280;52164;52.212;-1.010;2023-02-24T04:24:43;100562.57;;;2.97;69.85
62946;BME280;52164;52.212;-1.010;2023-02-24T04:27:10;100564.70;;;2.98;70.47
62946;BME280;52164;52.212;-1.010;2023-02-24T04:29:40;100565.47;;;3.00;70.32
62946;BME280;52164;52.212;-1.010;2023-02-24T04:32:11;100560.88;;;3.00;70.43
62946;BME280;52164;52.212;-1.010;2023-02-24T04:34:38;100558.94;;;3.00;70.46
62946;BME280;52164;52.212;-1.010;2023-02-24T04:37:04;100553.67;;;3.01;70.26
62946;BME280;52164;52.212;-1.010;2023-02-24T04:39:29;100548.38;;;3.00;70.23
62946;BME280;52164;52.212;-1.010;2023-02-24T04:41:55;100547.29;;;2.99;70.44
62946;BME280;52164;52.212;-1.010;2023-02-24T04:44:22;100548.15;;;2.99;70.29
62946;BME280;52164;52.212;-1.010;2023-02-24T04:46:48;100546.86;;;2.97;70.42
62946;BME280;52164;52.212;-1.010;2023-02-24T04:49:18;100545.19;;;2.94;70.03
62946;BME280;52164;52.212;-1.010;2023-02-24T04:51:43;100536.08;;;2.90;70.20
62946;BME280;52164;52.212;-1.010;2023-02-24T04:54:11;100535.08;;;2.87;70.30
62946;BME280;52164;52.212;-1.010;2023-02-24T04:56:41;100531.41;;;2.82;70.73
62946;BME280;52164;52.212;-1.010;2023-02-24T04:59:06;100530.13;;;2.80;71.02
62946;BME280;52164;52.212;-1.010;2023-02-24T05:01:34;100526.05;;;2.80;70.83
62946;BME280;52164;52.212;-1.010;2023-02-24T05:04:00;100520.21;;;2.79;71.06
62946;BME280;52164;52.212;-1.010;2023-02-24T05:06:25;100515.84;;;2.80;71.33
62946;BME280;52164;52.212;-1.010;2023-02-24T05:08:50;100511.20;;;2.79;71.14
62946;BME280;52164;52.212;-1.010;2023-02-24T05:11:16;100505.42;;;2.79;71.32
62946;BME280;52164;52.212;-1.010;2023-02-24T05:13:42;100497.83;;;2.79;71.38
62946;BME280;52164;52.212;-1.010;2023-02-24T05:16:11;100497.29;;;2.78;71.42
62946;BME280;52164;52.212;-1.010;2023-02-24T05:18:37;100493.00;;;2.77;71.33
62946;BME280;52164;52.212;-1.010;2023-02-24T05:21:05;100489.25;;;2.76;71.65
62946;BME280;52164;52.212;-1.010;2023-02-24T05:23:51;100486.52;;;2.73;71.21
62946;BME280;52164;52.212;-1.010;2023-02-24T05:26:17;100478.29;;;2.69;71.22
62946;BME280;52164;52.212;-1.010;2023-02-24T05:28:44;100470.27;;;2.66;71.59
62946;BME280;52164;52.212;-1.010;2023-02-24T05:31:14;100466.63;;;2.62;71.24
62946;BME280;52164;52.212;-1.010;2023-02-24T05:33:40;100457.90;;;2.59;71.37
62946;BME280;52164;52.212;-1.010;2023-02-24T05:36:08;100455.34;;;2.56;72.00
62946;BME280;52164;52.212;-1.010;2023-02-24T05:38:34;100451.06;;;2.54;71.60
62946;BME280;52164;52.212;-1.010;2023-02-24T05:41:03;100450.52;;;2.54;72.21
62946;BME280;52164;52.212;-1.010;2023-02-24T05:43:29;100454.36;;;2.53;72.55
62946;BME280;52164;52.212;-1.010;2023-02-24T05:45:59;100457.74;;;2.54;72.55
62946;BME280;52164;52.212;-1.010;2023-02-24T05:48:24;100455.15;;;2.55;72.75
62946;BME280;52164;52.212;-1.010;2023-02-24T05:50:52;100450.06;;;2.56;72.80
62946;BME280;52164;52.212;-1.010;2023-02-24T05:53:19;100451.02;;;2.58;72.67
62946;BME280;52164;52.212;-1.010;2023-02-24T05:55:45;100448.27;;;2.61;72.71
62946;BME280;52164;52.212;-1.010;2023-02-24T05:58:10;100441.88;;;2.65;72.70
62946;BME280;52164;52.212;-1.010;2023-02-24T06:00:35;100445.55;;;2.70;72.85
62946;BME280;52164;52.212;-1.010;2023-02-24T06:03:03;100437.30;;;2.77;73.18
62946;BME280;52164;52.212;-1.010;2023-02-24T06:05:33;100437.66;;;2.83;73.20
62946;BME280;52164;52.212;-1.010;2023-02-24T06:07:59;100430.59;;;2.88;73.64
62946;BME280;52164;52.212;-1.010;2023-02-24T06:10:31;100425.64;;;2.94;73.52
62946;BME280;52164;52.212;-1.010;2023-02-24T06:12:58;100422.95;;;2.98;72.93
62946;BME280;52164;52.212;-1.010;2023-02-24T06:15:25;100423.90;;;3.00;72.94
62946;BME280;52164;52.212;-1.010;2023-02-24T06:17:50;100419.89;;;3.02;73.17
62946;BME280;52164;52.212;-1.010;2023-02-24T06:20:16;100417.84;;;3.05;73.85
62946;BME280;52164;52.212;-1.010;2023-02-24T06:22:41;100410.34;;;3.07;73.77
62946;BME280;52164;52.212;-1.010;2023-02-24T06:25:07;100407.92;;;3.09;73.90
62946;BME280;52164;52.212;-1.010;2023-02-24T06:27:33;100404.11;;;3.12;74.31
62946;BME280;52164;52.212;-1.010;2023-02-24T06:30:00;100402.05;;;3.13;74.18
62946;BME280;52164;52.212;-1.010;2023-02-24T06:32:25;100406.70;;;3.16;74.31
62946;BME280;52164;52.212;-1.010;2023-02-24T06:34:51;100413.02;;;3.21;74.12
62946;BME280;52164;52.212;-1.010;2023-02-24T06:37:18;100411.70;;;3.24;74.29
62946;BME280;52164;52.212;-1.010;2023-02-24T06:39:43;100407.95;;;3.29;74.28
62946;BME280;52164;52.212;-1.010;2023-02-24T06:42:09;100409.52;;;3.35;74.57
62946;BME280;52164;52.212;-1.010;2023-02-24T06:44:35;100404.91;;;3.40;74.99
62946;BME280;52164;52.212;-1.010;2023-02-24T06:47:02;100407.18;;;3.46;75.27
62946;BME280;52164;52.212;-1.010;2023-02-24T06:49:28;100411.25;;;3.53;75.35
62946;BME280;52164;52.212;-1.010;2023-02-24T06:51:55;100409.86;;;3.61;75.29
62946;BME280;52164;52.212;-1.010;2023-02-24T06:54:21;100399.66;;;3.68;75.37
62946;BME280;52164;52.212;-1.010;2023-02-24T06:56:48;100394.73;;;3.77;75.13
62946;BME280;52164;52.212;-1.010;2023-02-24T06:59:13;100388.40;;;3.84;75.32
62946;BME280;52164;52.212;-1.010;2023-02-24T07:01:46;100388.08;;;3.92;75.47
62946;BME280;52164;52.212;-1.010;2023-02-24T07:04:12;100383.46;;;3.99;75.48
62946;BME280;52164;52.212;-1.010;2023-02-24T07:06:38;100381.48;;;4.04;75.74
62946;BME280;52164;52.212;-1.010;2023-02-24T07:09:07;100380.20;;;4.10;75.97
62946;BME280;52164;52.212;-1.010;2023-02-24T07:11:34;100378.91;;;4.15;75.85
62946;BME280;52164;52.212;-1.010;2023-02-24T07:14:00;100376.93;;;4.20;75.62
62946;BME280;52164;52.212;-1.010;2023-02-24T07:16:26;100375.42;;;4.24;75.67
62946;BME280;52164;52.212;-1.010;2023-02-24T07:18:54;100374.59;;;4.27;75.35
62946;BME280;52164;52.212;-1.010;2023-02-24T07:21:20;100377.30;;;4.29;75.08
62946;BME280;52164;52.212;-1.010;2023-02-24T07:23:47;100378.40;;;4.30;75.11
62946;BME280;52164;52.212;-1.010;2023-02-24T07:26:15;100381.99;;;4.33;75.33
62946;BME280;52164;52.212;-1.010;2023-02-24T07:28:42;100381.69;;;4.35;75.57
62946;BME280;52164;52.212;-1.010;2023-02-24T07:31:08;100375.59;;;4.39;75.64
62946;BME280;52164;52.212;-1.010;2023-02-24T07:33:35;100380.34;;;4.46;75.60
62946;BME280;52164;52.212;-1.010;2023-02-24T07:36:01;100377.80;;;4.51;75.80
62946;BME280;52164;52.212;-1.010;2023-02-24T07:38:33;100379.65;;;4.55;75.91
62946;BME280;52164;52.212;-1.010;2023-02-24T07:41:00;100379.60;;;4.61;75.92
62946;BME280;52164;52.212;-1.010;2023-02-24T07:43:25;100379.90;;;4.67;76.03
62946;BME280;52164;52.212;-1.010;2023-02-24T07:45:51;100377.58;;;4.73;75.85
62946;BME280;52164;52.212;-1.010;2023-02-24T07:48:16;100375.73;;;4.78;75.83
62946;BME280;52164;52.212;-1.010;2023-02-24T07:50:42;100373.52;;;4.82;75.60
62946;BME280;52164;52.212;-1.010;2023-02-24T07:53:08;100376.42;;;4.86;75.49
62946;BME280;52164;52.212;-1.010;2023-02-24T07:55:34;100375.58;;;4.87;75.56
62946;BME280;52164;52.212;-1.010;2023-02-24T07:58:00;100374.75;;;4.90;75.23
62946;BME280;52164;52.212;-1.010;2023-02-24T08:00:27;100376.70;;;4.91;75.35
62946;BME280;52164;52.212;-1.010;2023-02-24T08:02:54;100377.08;;;4.91;75.24
62946;BME280;52164;52.212;-1.010;2023-02-24T08:05:20;100377.46;;;4.93;75.24
62946;BME280;52164;52.212;-1.010;2023-02-24T08:07:46;100376.12;;;4.97;75.25
62946;BME280;52164;52.212;-1.010;2023-02-24T08:10:15;100373.58;;;5.02;75.44
62946;BME280;52164;52.212;-1.010;2023-02-24T08:13:00;100373.91;;;5.10;75.43
62946;BME280;52164;52.212;-1.010;2023-02-24T08:15:27;100368.75;;;5.17;75.64
62946;BME280;52164;52.212;-1.010;2023-02-24T08:17:58;100367.79;;;5.23;75.72
62946;BME280;52164;52.212;-1.010;2023-02-24T08:20:24;100369.38;;;5.32;75.87
62946;BME280;52164;52.212;-1.010;2023-02-24T08:22:50;100368.11;;;5.40;75.90
62946;BME280;52164;52.212;-1.010;2023-02-24T08:25:18;100369.86;;;5.49;75.94
62946;BME280;52164;52.212;-1.010;2023-02-24T08:27:44;100361.52;;;5.58;75.83
62946;BME280;52164;52.212;-1.010;2023-02-24T08:30:11;100356.05;;;5.67;76.27
62946;BME280;52164;52.212;-1.010;2023-02-24T08:32:47;100353.73;;;5.76;76.20
62946;BME280;52164;52.212;-1.010;2023-02-24T08:35:21;100351.91;;;5.86;76.14
62946;BME280;52164;52.212;-1.010;2023-02-24T08:37:49;100358.29;;;5.95;75.90
62946;BME280;52164;52.212;-1.010;2023-02-24T08:45:49;100353.96;;;6.36;76.30
62946;BME280;52164;52.212;-1.010;2023-02-24T08:48:16;100348.77;;;6.44;75.76
62946;BME280;52164;52.212;-1.010;2023-02-24T08:50:44;100347.61;;;6.49;75.70
62946;BME280;52164;52.212;-1.010;2023-02-24T08:53:11;100343.25;;;6.54;75.83
62946;BME280;52164;52.212;-1.010;2023-02-24T08:55:44;100343.50;;;6.61;76.16
62946;BME280;52164;52.212;-1.010;2023-02-24T08:58:10;100352.10;;;6.68;75.59
62946;BME280;52164;52.212;-1.010;2023-02-24T09:00:42;100346.16;;;6.75;76.01
62946;BME280;52164;52.212;-1.010;2023-02-24T09:03:18;100345.77;;;6.85;76.37
62946;BME280;52164;52.212;-1.010;2023-02-24T09:08:24;100345.31;;;7.07;76.28
62946;BME280;52164;52.212;-1.010;2023-02-24T09:10:57;100345.05;;;7.14;75.97
62946;BME280;52164;52.212;-1.010;2023-02-24T09:13:23;100347.80;;;7.22;76.06
62946;BME280;52164;52.212;-1.010;2023-02-24T09:15:57;100345.73;;;7.29;75.87
62946;BME280;52164;52.212;-1.010;2023-02-24T09:18:22;100340.65;;;7.36;75.98
62946;BME280;52164;52.212;-1.010;2023-02-24T09:20:55;100338.41;;;7.42;75.95
62946;BME280;52164;52.212;-1.010;2023-02-24T09:23:20;100335.08;;;7.46;75.62
62946;BME280;52164;52.212;-1.010;2023-02-24T09:25:54;100333.70;;;7.51;75.49
62946;BME280;52164;52.212;-1.010;2023-02-24T09:28:21;100332.31;;;7.54;75.19
62946;BME280;52164;52.212;-1.010;2023-02-24T09:30:50;100334.13;;;7.58;75.51
62946;BME280;52164;52.212;-1.010;2023-02-24T09:35:44;100327.51;;;7.72;75.97
62946;BME280;52164;52.212;-1.010;2023-02-24T09:38:11;100321.20;;;7.84;75.47
62946;BME280;52164;52.212;-1.010;2023-02-24T09:40:41;100316.84;;;7.94;75.68
62946;BME280;52164;52.212;-1.010;2023-02-24T09:43:18;100316.40;;;8.06;75.33
62946;BME280;52164;52.212;-1.010;2023-02-24T09:45:50;100321.80;;;8.16;75.31
62946;BME280;52164;52.212;-1.010;2023-02-24T09:48:21;100319.00;;;8.23;75.65
62946;BME280;52164;52.212;-1.010;2023-02-24T09:50:48;100317.61;;;8.28;75.55
62946;BME280;52164;52.212;-1.010;2023-02-24T09:53:33;100318.89;;;8.34;75.82
62946;BME280;52164;52.212;-1.010;2023-02-24T10:06:16;100315.92;;;8.73;75.16
62946;BME280;52164;52.212;-1.010;2023-02-24T10:08:47;100315.06;;;8.82;75.10
62946;BME280;52164;52.212;-1.010;2023-02-24T10:11:14;100312.60;;;8.90;75.10
62946;BME280;52164;52.212;-1.010;2023-02-24T10:13:45;100312.63;;;8.96;74.95
62946;BME280;52164;52.212;-1.010;2023-02-24T10:16:15;100315.14;;;9.03;74.73
62946;BME280;52164;52.212;-1.010;2023-02-24T10:18:50;100314.98;;;9.08;74.85
62946;BME280;52164;52.212;-1.010;2023-02-24T10:21:26;100309.48;;;9.18;74.44
62946;BME280;52164;52.212;-1.010;2023-02-24T10:26:42;100308.80;;;9.33;74.12
62946;BME280;52164;52.212;-1.010;2023-02-24T10:30:15;100304.00;;;9.37;73.73
62946;BME280;52164;52.212;-1.010;2023-02-24T10:31:59;100301.69;;;9.39;73.96
62946;BME280;52164;52.212;-1.010;2023-02-24T10:34:30;100302.93;;;9.39;73.86
62946;BME280;52164;52.212;-1.010;2023-02-24T10:36:57;100307.23;;;9.54;73.92
62946;BME280;52164;52.212;-1.010;2023-02-24T10:39:25;100307.24;;;9.70;73.96
62946;BME280;52164;52.212;-1.010;2023-02-24T10:41:53;100302.41;;;9.80;73.42
62946;BME280;52164;52.212;-1.010;2023-02-24T10:44:23;100303.66;;;9.90;73.52
62946;BME280;52164;52.212;-1.010;2023-02-24T10:47:06;100302.41;;;9.99;73.16
62946;BME280;52164;52.212;-1.010;2023-02-24T10:49:42;100301.88;;;10.05;73.09
62946;BME280;52164;52.212;-1.010;2023-02-24T10:52:21;100302.59;;;10.04;72.90
62946;BME280;52164;52.212;-1.010;2023-02-24T10:55:04;100305.26;;;10.07;72.77
62946;BME280;52164;52.212;-1.010;2023-02-24T10:57:50;100298.64;;;10.16;72.69
62946;BME280;52164;52.212;-1.010;2023-02-24T11:00:24;100303.27;;;10.24;72.35
62946;BME280;52164;52.212;-1.010;2023-02-24T11:03:12;100300.05;;;10.28;71.80
62946;BME280;52164;52.212;-1.010;2023-02-24T11:05:49;100297.91;;;10.33;71.86
62946;BME280;52164;52.212;-1.010;2023-02-24T11:08:34;100297.03;;;10.36;71.25
62946;BME280;52164;52.212;-1.010;2023-02-24T11:11:08;100295.42;;;10.33;71.06
62946;BME280;52164;52.212;-1.010;2023-02-24T11:13:46;100296.50;;;10.34;71.01
62946;BME280;52164;52.212;-1.010;2023-02-24T11:16:39;100296.66;;;10.30;71.09
62946;BME280;52164;52.212;-1.010;2023-02-24T11:19:27;100298.29;;;10.16;71.07
62946;BME280;52164;52.212;-1.010;2023-02-24T11:21:53;100299.91;;;10.05;71.19
62946;BME280;52164;52.212;-1.010;2023-02-24T11:24:19;100297.96;;;9.97;71.40
62946;BME280;52164;52.212;-1.010;2023-02-24T11:26:44;100294.74;;;9.97;71.48
62946;BME280;52164;52.212;-1.010;2023-02-24T11:29:46;100293.13;;;10.06;71.37
62946;BME280;52164;52.212;-1.010;2023-02-24T11:31:59;100290.97;;;10.23;71.21
62946;BME280;52164;52.212;-1.010;2023-02-24T11:34:37;100289.17;;;10.30;71.07
62946;BME280;52164;52.212;-1.010;2023-02-24T11:37:40;100284.71;;;10.37;71.16
62946;BME280;52164;52.212;-1.010;2023-02-24T11:40:11;100285.92;;;10.51;70.80
62946;BME280;52164;52.212;-1.010;2023-02-24T11:42:41;100284.08;;;10.66;70.35
62946;BME280;52164;52.212;-1.010;2023-02-24T11:45:43;100286.70;;;10.80;69.93
62946;BME280;52164;52.212;-1.010;2023-02-24T11:47:58;100281.28;;;10.93;69.67
62946;BME280;52164;52.212;-1.010;2023-02-24T11:50:29;100279.81;;;11.02;69.40
62946;BME280;52164;52.212;-1.010;2023-02-24T11:52:57;100278.35;;;11.05;68.68
62946;BME280;52164;52.212;-1.010;2023-02-24T11:55:29;100275.27;;;11.13;68.60
62946;BME280;52164;52.212;-1.010;2023-02-24T11:57:59;100272.92;;;11.17;68.32
62946;BME280;52164;52.212;-1.010;2023-02-24T12:00:27;100281.64;;;11.25;68.46
62946;BME280;52164;52.212;-1.010;2023-02-24T12:02:58;100288.02;;;11.03;68.14
62946;BME280;52164;52.212;-1.010;2023-02-24T12:05:26;100301.90;;;10.73;68.30
62946;BME280;52164;52.212;-1.010;2023-02-24T12:10:18;100302.91;;;10.22;69.38
62946;BME280;52164;52.212;-1.010;2023-02-24T12:12:48;100300.63;;;10.04;69.88
62946;BME280;52164;52.212;-1.010;2023-02-24T12:17:41;100296.19;;;9.93;70.69
62946;BME280;52164;52.212;-1.010;2023-02-24T12:20:42;100292.98;;;9.91;70.74
62946;BME280;52164;52.212;-1.010;2023-02-24T12:22:55;100283.89;;;9.80;70.70
62946;BME280;52164;52.212;-1.010;2023-02-24T12:25:24;100281.05;;;9.77;70.86
62946;BME280;52164;52.212;-1.010;2023-02-24T12:28:01;100275.70;;;9.81;70.99
62946;BME280;52164;52.212;-1.010;2023-02-24T12:30:39;100276.40;;;9.88;71.20
62946;BME280;52164;52.212;-1.010;2023-02-24T12:33:18;100278.36;;;9.97;70.99
62946;BME280;52164;52.212;-1.010;2023-02-24T12:38:35;100276.90;;;10.07;70.71
62946;BME280;52164;52.212;-1.010;2023-02-24T12:38:37;100274.04;;;10.18;70.42
62946;BME280;52164;52.212;-1.010;2023-02-24T12:43:35;100275.08;;;10.40;69.68
62946;BME280;52164;52.212;-1.010;2023-02-24T12:46:20;100277.01;;;10.51;69.40
62946;BME280;52164;52.212;-1.010;2023-02-24T12:51:20;100272.12;;;10.64;67.90
62946;BME280;52164;52.212;-1.010;2023-02-24T12:54:22;100269.23;;;10.77;67.71
62946;BME280;52164;52.212;-1.010;2023-02-24T12:56:39;100270.01;;;10.98;67.73
62946;BME280;52164;52.212;-1.010;2023-02-24T12:59:06;100265.00;;;11.28;67.33
62946;BME280;52164;52.212;-1.010;2023-02-24T13:04:06;100260.77;;;11.89;65.53
62946;BME280;52164;52.212;-1.010;2023-02-24T13:07:08;100258.34;;;12.02;64.84
62946;BME280;52164;52.212;-1.010;2023-02-24T13:11:48;100254.35;;;12.07;63.68
62946;BME280;52164;52.212;-1.010;2023-02-24T13:16:43;100251.85;;;12.24;62.94
62946;BME280;52164;52.212;-1.010;2023-02-24T13:19:28;100250.45;;;12.52;62.75
62946;BME280;52164;52.212;-1.010;2023-02-24T13:22:59;100247.29;;;12.75;62.25
62946;BME280;52164;52.212;-1.010;2023-02-24T13:24:42;100247.58;;;12.81;61.03
62946;BME280;52164;52.212;-1.010;2023-02-24T13:27:24;100244.29;;;12.73;60.71
62946;BME280;52164;52.212;-1.010;2023-02-24T13:29:50;100248.11;;;12.53;60.81
62946;BME280;52164;52.212;-1.010;2023-02-24T13:32:33;100243.85;;;12.34;60.78
62946;BME280;52164;52.212;-1.010;2023-02-24T13:35:01;100247.98;;;12.18;60.78
62946;BME280;52164;52.212;-1.010;2023-02-24T13:37:28;100243.71;;;12.15;60.82
62946;BME280;52164;52.212;-1.010;2023-02-24T13:39:54;100236.97;;;12.10;61.01
62946;BME280;52164;52.212;-1.010;2023-02-24T13:42:24;100231.38;;;11.98;60.67
62946;BME280;52164;52.212;-1.010;2023-02-24T13:44:51;100227.34;;;11.87;60.75
62946;BME280;52164;52.212;-1.010;2023-02-24T13:49:50;100234.33;;;11.65;61.35
62946;BME280;52164;52.212;-1.010;2023-02-24T13:52:23;100230.10;;;11.59;60.88
62946;BME280;52164;52.212;-1.010;2023-02-24T13:59:55;100228.18;;;11.31;60.80
62946;BME280;52164;52.212;-1.010;2023-02-24T14:00:47;100227.22;;;11.15;60.95
62946;BME280;52164;52.212;-1.010;2023-02-24T14:02:56;100220.30;;;11.08;60.83
62946;BME280;52164;52.212;-1.010;2023-02-24T14:07:48;100221.66;;;11.19;60.60